sensor_id;sensor_type;location;lat;lon;timestamp;P1;durP1;ratioP1;P2;durP2;ratioP2
2099;SDS011;1055;48.854;9.302;2023-03-03T00:00:33;50.43;;;29.83;;
2099;SDS011;1055;48.854;9.302;2023-03-03T00:03:00;50.53;;;29.50;;
2099;SDS011;1055;48.854;9.302;2023-03-03T00:05:30;58.22;;;31.27;;
2099;SDS011;1055;48.854;9.302;2023-03-03T00:07:57;50.75;;;31.17;;
2099;SDS011;1055;48.854;9.302;2023-03-03T00:10:24;53.53;;;30.67;;
2099;SDS011;1055;48.854;9.302;2023-03-03T00:12:51;53.20;;;30.10;;
2099;SDS011;1055;48.854;9.302;2023-03-03T00:15:22;53.97;;;30.27;;
2099;SDS011;1055;48.854;9.302;2023-03-03T00:17:49;53.13;;;30.10;;
2099;SDS011;1055;48.854;9.302;2023-03-03T00:20:36;52.78;;;28.95;;
2099;SDS011;1055;48.854;9.302;2023-03-03T00:23:12;51.85;;;28.02;;
2099;SDS011;1055;48.854;9.302;2023-03-03T00:25:41;53.42;;;29.40;;
2099;SDS011;1055;48.854;9.302;2023-03-03T00:28:15;57.10;;;31.00;;
2099;SDS011;1055;48.854;9.302;2023-03-03T00:30:47;54.55;;;29.92;;
2099;SDS011;1055;48.854;9.302;2023-03-03T00:33:32;59.97;;;32.83;;
2099;SDS011;1055;48.854;9.302;2023-03-03T00:36:26;52.83;;;31.08;;
2099;SDS011;1055;48.854;9.302;2023-03-03T00:38:57;54.50;;;30.95;;
2099;SDS011;1055;48.854;9.302;2023-03-03T00:41:38;57.63;;;30.80;;
2099;SDS011;1055;48.854;9.302;2023-03-03T00:46:52;57.25;;;30.50;;
2099;SDS011;1055;48.854;9.302;2023-03-03T00:49:21;56.67;;;30.52;;
2099;SDS011;1055;48.854;9.302;2023-03-03T00:51:51;56.63;;;31.00;;
2099;SDS011;1055;48.854;9.302;2023-03-03T00:54:17;54.95;;;29.88;;
2099;SDS011;1055;48.854;9.302;2023-03-03T00:56:43;56.67;;;31.60;;
2099;SDS011;1055;48.854;9.302;2023-03-03T00:59:10;49.10;;;30.20;;
2099;SDS011;1055;48.854;9.302;2023-03-03T01:01:36;51.17;;;28.48;;
2099;SDS011;1055;48.854;9.302;2023-03-03T01:04:01;54.03;;;31.23;;
2099;SDS011;1055;48.854;9.302;2023-03-03T01:06:27;52.83;;;28.43;;
2099;SDS011;1055;48.854;9.302;2023-03-03T01:08:52;48.67;;;28.03;;
2099;SDS011;1055;48.854;9.302;2023-03-03T01:11:22;52.50;;;29.58;;
2099;SDS011;1055;48.854;9.302;2023-03-03T01:13:50;49.03;;;29.17;;
2099;SDS011;1055;48.854;9.302;2023-03-03T01:16:17;50.90;;;28.25;;
2099;SDS011;1055;48.854;9.302;2023-03-03T01:18:43;51.13;;;29.08;;
2099;SDS011;1055;48.854;9.302;2023-03-03T01:21:09;54.73;;;29.00;;
2099;SDS011;1055;48.854;9.302;2023-03-03T01:23:35;51.03;;;29.65;;
2099;SDS011;1055;48.854;9.302;2023-03-03T01:26:01;46.17;;;26.43;;
2099;SDS011;1055;48.854;9.302;2023-03-03T01:28:27;46.97;;;28.25;;
2099;SDS011;1055;48.854;9.302;2023-03-03T01:30:53;50.37;;;27.07;;
2099;SDS011;1055;48.854;9.302;2023-03-03T01:33:19;53.23;;;27.27;;
2099;SDS011;1055;48.854;9.302;2023-03-03T01:35:45;48.70;;;28.98;;
2099;SDS011;1055;48.854;9.302;2023-03-03T01:38:12;51.28;;;27.90;;
2099;SDS011;1055;48.854;9.302;2023-03-03T01:40:39;51.92;;;27.27;;
2099;SDS011;1055;48.854;9.302;2023-03-03T01:43:05;56.15;;;30.13;;
2099;SDS011;1055;48.854;9.302;2023-03-03T01:51:14;50.10;;;26.40;;
2099;SDS011;1055;48.854;9.302;2023-03-03T01:53:50;48.13;;;26.60;;
2099;SDS011;1055;48.854;9.302;2023-03-03T01:56:19;50.70;;;26.65;;
2099;SDS011;1055;48.854;9.302;2023-03-03T01:58:48;52.92;;;27.98;;
2099;SDS011;1055;48.854;9.302;2023-03-03T02:01:20;54.65;;;28.23;;
2099;SDS011;1055;48.854;9.302;2023-03-03T02:03:48;44.28;;;26.02;;
2099;SDS011;1055;48.854;9.302;2023-03-03T02:06:16;53.35;;;31.08;;
2099;SDS011;1055;48.854;9.302;2023-03-03T02:11:15;65.97;;;34.50;;
2099;SDS011;1055;48.854;9.302;2023-03-03T02:13:41;58.42;;;31.40;;
2099;SDS011;1055;48.854;9.302;2023-03-03T02:16:07;61.13;;;33.27;;
2099;SDS011;1055;48.854;9.302;2023-03-03T02:18:32;62.30;;;33.65;;
2099;SDS011;1055;48.854;9.302;2023-03-03T02:28:22;53.20;;;28.27;;
2099;SDS011;1055;48.854;9.302;2023-03-03T02:30:55;58.35;;;29.88;;
2099;SDS011;1055;48.854;9.302;2023-03-03T02:33:22;49.55;;;28.88;;
2099;SDS011;1055;48.854;9.302;2023-03-03T02:35:49;51.90;;;28.42;;
2099;SDS011;1055;48.854;9.302;2023-03-03T02:44:05;55.28;;;29.10;;
2099;SDS011;1055;48.854;9.302;2023-03-03T02:46:41;56.30;;;28.65;;
2099;SDS011;1055;48.854;9.302;2023-03-03T02:49:10;57.38;;;28.25;;
2099;SDS011;1055;48.854;9.302;2023-03-03T02:51:37;53.40;;;28.05;;
2099;SDS011;1055;48.854;9.302;2023-03-03T02:54:04;53.28;;;30.13;;
2099;SDS011;1055;48.854;9.302;2023-03-03T02:56:31;53.97;;;29.05;;
2099;SDS011;1055;48.854;9.302;2023-03-03T02:58:57;52.78;;;29.00;;
2099;SDS011;1055;48.854;9.302;2023-03-03T03:01:23;56.08;;;29.50;;
2099;SDS011;1055;48.854;9.302;2023-03-03T03:03:49;56.00;;;28.80;;
2099;SDS011;1055;48.854;9.302;2023-03-03T03:06:14;52.40;;;29.57;;
2099;SDS011;1055;48.854;9.302;2023-03-03T03:08:40;55.77;;;29.47;;
2099;SDS011;1055;48.854;9.302;2023-03-03T03:11:06;47.97;;;29.03;;
2099;SDS011;1055;48.854;9.302;2023-03-03T03:13:32;51.17;;;28.43;;
2099;SDS011;1055;48.854;9.302;2023-03-03T03:15:57;56.80;;;29.67;;
2099;SDS011;1055;48.854;9.302;2023-03-03T03:18:24;53.38;;;28.17;;
2099;SDS011;1055;48.854;9.302;2023-03-03T03:20:49;54.70;;;30.00;;
2099;SDS011;1055;48.854;9.302;2023-03-03T03:23:15;53.27;;;30.63;;
2099;SDS011;1055;48.854;9.302;2023-03-03T03:25:42;51.70;;;29.00;;
2099;SDS011;1055;48.854;9.302;2023-03-03T03:28:11;54.53;;;28.67;;
2099;SDS011;1055;48.854;9.302;2023-03-03T03:30:38;51.20;;;28.00;;
2099;SDS011;1055;48.854;9.302;2023-03-03T03:33:04;51.72;;;29.50;;
2099;SDS011;1055;48.854;9.302;2023-03-03T03:35:31;52.70;;;29.20;;
2099;SDS011;1055;48.854;9.302;2023-03-03T03:37:58;50.92;;;28.00;;
2099;SDS011;1055;48.854;9.302;2023-03-03T03:40:24;53.13;;;27.90;;
2099;SDS011;1055;48.854;9.302;2023-03-03T03:42:51;50.42;;;26.15;;
2099;SDS011;1055;48.854;9.302;2023-03-03T03:45:17;50.00;;;28.60;;
2099;SDS011;1055;48.854;9.302;2023-03-03T03:47:43;47.67;;;27.70;;
2099;SDS011;1055;48.854;9.302;2023-03-03T03:50:09;46.60;;;28.67;;
2099;SDS011;1055;48.854;9.302;2023-03-03T03:52:35;50.10;;;28.80;;
2099;SDS011;1055;48.854;9.302;2023-03-03T03:55:01;45.77;;;27.50;;
2099;SDS011;1055;48.854;9.302;2023-03-03T03:57:27;54.17;;;29.60;;
2099;SDS011;1055;48.854;9.302;2023-03-03T03:59:53;45.20;;;27.27;;
2099;SDS011;1055;48.854;9.302;2023-03-03T04:02:18;59.00;;;26.97;;
2099;SDS011;1055;48.854;9.302;2023-03-03T04:04:44;48.17;;;27.83;;
2099;SDS011;1055;48.854;9.302;2023-03-03T04:07:09;46.50;;;26.43;;
2099;SDS011;1055;48.854;9.302;2023-03-03T04:09:35;49.33;;;27.60;;
2099;SDS011;1055;48.854;9.302;2023-03-03T04:12:01;51.03;;;27.40;;
2099;SDS011;1055;48.854;9.302;2023-03-03T04:14:26;141.07;;;35.90;;
2099;SDS011;1055;48.854;9.302;2023-03-03T04:16:52;49.20;;;27.90;;
2099;SDS011;1055;48.854;9.302;2023-03-03T04:19:18;68.53;;;33.57;;
2099;SDS011;1055;48.854;9.302;2023-03-03T04:21:43;51.77;;;30.43;;
2099;SDS011;1055;48.854;9.302;2023-03-03T04:24:09;64.87;;;32.03;;
2099;SDS011;1055;48.854;9.302;2023-03-03T04:26:35;58.00;;;29.70;;
2099;SDS011;1055;48.854;9.302;2023-03-03T04:29:00;51.63;;;29.63;;
2099;SDS011;1055;48.854;9.302;2023-03-03T04:31:26;57.93;;;29.30;;
2099;SDS011;1055;48.854;9.302;2023-03-03T04:33:52;57.00;;;30.80;;
2099;SDS011;1055;48.854;9.302;2023-03-03T04:36:18;63.10;;;31.77;;
2099;SDS011;1055;48.854;9.302;2023-03-03T04:38:45;56.47;;;32.47;;
2099;SDS011;1055;48.854;9.302;2023-03-03T04:41:11;51.10;;;29.80;;
2099;SDS011;1055;48.854;9.302;2023-03-03T04:43:36;57.10;;;31.13;;
2099;SDS011;1055;48.854;9.302;2023-03-03T04:46:02;59.47;;;30.90;;
2099;SDS011;1055;48.854;9.302;2023-03-03T04:48:28;53.23;;;31.97;;
2099;SDS011;1055;48.854;9.302;2023-03-03T04:50:54;56.23;;;28.87;;
2099;SDS011;1055;48.854;9.302;2023-03-03T04:53:19;58.37;;;31.77;;
2099;SDS011;1055;48.854;9.302;2023-03-03T04:55:45;60.60;;;33.93;;
2099;SDS011;1055;48.854;9.302;2023-03-03T04:58:11;67.90;;;38.40;;
2099;SDS011;1055;48.854;9.302;2023-03-03T05:00:37;69.30;;;37.30;;
2099;SDS011;1055;48.854;9.302;2023-03-03T05:03:03;75.80;;;39.13;;
2099;SDS011;1055;48.854;9.302;2023-03-03T05:05:29;58.33;;;32.43;;
2099;SDS011;1055;48.854;9.302;2023-03-03T05:07:54;53.73;;;31.77;;
2099;SDS011;1055;48.854;9.302;2023-03-03T05:10:20;60.03;;;31.67;;
2099;SDS011;1055;48.854;9.302;2023-03-03T05:12:46;56.97;;;35.67;;
2099;SDS011;1055;48.854;9.302;2023-03-03T05:15:11;58.07;;;31.20;;
2099;SDS011;1055;48.854;9.302;2023-03-03T05:17:37;53.43;;;30.37;;
2099;SDS011;1055;48.854;9.302;2023-03-03T05:20:03;57.90;;;31.33;;
2099;SDS011;1055;48.854;9.302;2023-03-03T05:22:32;59.00;;;32.72;;
2099;SDS011;1055;48.854;9.302;2023-03-03T05:24:58;59.70;;;31.83;;
2099;SDS011;1055;48.854;9.302;2023-03-03T05:27:23;55.53;;;31.73;;
2099;SDS011;1055;48.854;9.302;2023-03-03T05:29:49;54.63;;;29.90;;
2099;SDS011;1055;48.854;9.302;2023-03-03T05:32:15;56.70;;;31.07;;
2099;SDS011;1055;48.854;9.302;2023-03-03T05:34:41;57.43;;;30.90;;
2099;SDS011;1055;48.854;9.302;2023-03-03T05:37:07;57.15;;;31.63;;
2099;SDS011;1055;48.854;9.302;2023-03-03T05:39:33;66.10;;;34.60;;
2099;SDS011;1055;48.854;9.302;2023-03-03T05:41:59;53.78;;;29.73;;
2099;SDS011;1055;48.854;9.302;2023-03-03T05:44:25;58.17;;;31.40;;
2099;SDS011;1055;48.854;9.302;2023-03-03T05:46:51;53.53;;;30.20;;
2099;SDS011;1055;48.854;9.302;2023-03-03T05:49:17;53.40;;;30.87;;
2099;SDS011;1055;48.854;9.302;2023-03-03T05:51:42;58.90;;;30.70;;
2099;SDS011;1055;48.854;9.302;2023-03-03T05:54:08;52.83;;;28.40;;
2099;SDS011;1055;48.854;9.302;2023-03-03T05:56:34;54.57;;;30.53;;
2099;SDS011;1055;48.854;9.302;2023-03-03T05:58:59;56.77;;;30.67;;
2099;SDS011;1055;48.854;9.302;2023-03-03T06:01:25;59.90;;;30.60;;
2099;SDS011;1055;48.854;9.302;2023-03-03T06:03:52;55.50;;;30.40;;
2099;SDS011;1055;48.854;9.302;2023-03-03T06:06:18;53.93;;;29.70;;
2099;SDS011;1055;48.854;9.302;2023-03-03T06:08:43;59.07;;;32.00;;
2099;SDS011;1055;48.854;9.302;2023-03-03T06:11:09;49.50;;;27.80;;
2099;SDS011;1055;48.854;9.302;2023-03-03T06:13:35;55.72;;;30.92;;
2099;SDS011;1055;48.854;9.302;2023-03-03T06:16:01;53.27;;;29.97;;
2099;SDS011;1055;48.854;9.302;2023-03-03T06:18:27;53.93;;;31.70;;
2099;SDS011;1055;48.854;9.302;2023-03-03T06:20:52;51.00;;;30.30;;
2099;SDS011;1055;48.854;9.302;2023-03-03T06:23:19;58.80;;;32.22;;
2099;SDS011;1055;48.854;9.302;2023-03-03T06:25:45;58.85;;;32.25;;
2099;SDS011;1055;48.854;9.302;2023-03-03T06:28:12;57.13;;;30.60;;
2099;SDS011;1055;48.854;9.302;2023-03-03T06:30:38;52.00;;;30.58;;
2099;SDS011;1055;48.854;9.302;2023-03-03T06:33:04;58.40;;;31.23;;
2099;SDS011;1055;48.854;9.302;2023-03-03T06:35:29;53.23;;;29.80;;
2099;SDS011;1055;48.854;9.302;2023-03-03T06:37:55;59.53;;;29.07;;
2099;SDS011;1055;48.854;9.302;2023-03-03T06:40:21;72.27;;;38.60;;
2099;SDS011;1055;48.854;9.302;2023-03-03T06:42:46;52.97;;;30.43;;
2099;SDS011;1055;48.854;9.302;2023-03-03T06:45:12;57.37;;;31.57;;
2099;SDS011;1055;48.854;9.302;2023-03-03T06:47:38;62.80;;;31.30;;
2099;SDS011;1055;48.854;9.302;2023-03-03T06:50:05;54.55;;;30.48;;
2099;SDS011;1055;48.854;9.302;2023-03-03T06:52:32;58.50;;;32.83;;
2099;SDS011;1055;48.854;9.302;2023-03-03T06:54:59;52.53;;;30.90;;
2099;SDS011;1055;48.854;9.302;2023-03-03T06:57:30;54.15;;;29.75;;
2099;SDS011;1055;48.854;9.302;2023-03-03T06:59:59;59.75;;;30.45;;
2099;SDS011;1055;48.854;9.302;2023-03-03T07:02:39;62.97;;;30.65;;
2099;SDS011;1055;48.854;9.302;2023-03-03T07:05:08;59.90;;;32.15;;
2099;SDS011;1055;48.854;9.302;2023-03-03T07:07:38;56.83;;;29.40;;
2099;SDS011;1055;48.854;9.302;2023-03-03T07:10:19;55.70;;;31.10;;
2099;SDS011;1055;48.854;9.302;2023-03-03T07:12:49;57.80;;;30.90;;
2099;SDS011;1055;48.854;9.302;2023-03-03T07:15:22;65.10;;;30.47;;
2099;SDS011;1055;48.854;9.302;2023-03-03T07:17:54;60.17;;;32.60;;
2099;SDS011;1055;48.854;9.302;2023-03-03T07:20:27;60.83;;;31.88;;
2099;SDS011;1055;48.854;9.302;2023-03-03T07:22:59;55.17;;;31.33;;
2099;SDS011;1055;48.854;9.302;2023-03-03T07:30:55;62.85;;;32.17;;
2099;SDS011;1055;48.854;9.302;2023-03-03T07:33:28;57.47;;;30.95;;
2099;SDS011;1055;48.854;9.302;2023-03-03T07:35:59;65.30;;;31.98;;
2099;SDS011;1055;48.854;9.302;2023-03-03T07:38:33;56.33;;;32.25;;
2099;SDS011;1055;48.854;9.302;2023-03-03T07:41:16;58.63;;;31.02;;
2099;SDS011;1055;48.854;9.302;2023-03-03T07:43:51;61.63;;;30.70;;
2099;SDS011;1055;48.854;9.302;2023-03-03T07:46:40;65.10;;;32.22;;
2099;SDS011;1055;48.854;9.302;2023-03-03T07:49:41;59.20;;;31.63;;
2099;SDS011;1055;48.854;9.302;2023-03-03T07:52:01;56.53;;;31.55;;
2099;SDS011;1055;48.854;9.302;2023-03-03T07:55:01;60.55;;;30.90;;
2099;SDS011;1055;48.854;9.302;2023-03-03T07:57:49;56.15;;;29.50;;
2099;SDS011;1055;48.854;9.302;2023-03-03T08:03:08;63.05;;;33.10;;
2099;SDS011;1055;48.854;9.302;2023-03-03T08:05:47;60.47;;;31.60;;
2099;SDS011;1055;48.854;9.302;2023-03-03T08:08:29;53.75;;;30.75;;
2099;SDS011;1055;48.854;9.302;2023-03-03T08:11:07;52.83;;;29.33;;
2099;SDS011;1055;48.854;9.302;2023-03-03T08:13:35;55.58;;;28.70;;
2099;SDS011;1055;48.854;9.302;2023-03-03T08:18:47;58.05;;;32.67;;
2099;SDS011;1055;48.854;9.302;2023-03-03T08:21:21;56.92;;;31.55;;
2099;SDS011;1055;48.854;9.302;2023-03-03T08:23:49;60.70;;;30.80;;
2099;SDS011;1055;48.854;9.302;2023-03-03T08:26:17;64.05;;;32.65;;
2099;SDS011;1055;48.854;9.302;2023-03-03T08:28:47;65.70;;;32.25;;
2099;SDS011;1055;48.854;9.302;2023-03-03T08:31:13;58.85;;;31.85;;
2099;SDS011;1055;48.854;9.302;2023-03-03T08:33:39;56.80;;;32.23;;
2099;SDS011;1055;48.854;9.302;2023-03-03T08:36:05;54.63;;;30.80;;
2099;SDS011;1055;48.854;9.302;2023-03-03T08:38:31;59.05;;;32.40;;
2099;SDS011;1055;48.854;9.302;2023-03-03T08:40:57;53.00;;;31.00;;
2099;SDS011;1055;48.854;9.302;2023-03-03T08:43:23;60.63;;;32.80;;
2099;SDS011;1055;48.854;9.302;2023-03-03T08:45:49;52.87;;;30.30;;
2099;SDS011;1055;48.854;9.302;2023-03-03T08:48:17;57.78;;;30.52;;
2099;SDS011;1055;48.854;9.302;2023-03-03T08:50:43;60.53;;;30.48;;
2099;SDS011;1055;48.854;9.302;2023-03-03T08:53:11;53.05;;;29.90;;
2099;SDS011;1055;48.854;9.302;2023-03-03T08:55:37;53.42;;;31.58;;
2099;SDS011;1055;48.854;9.302;2023-03-03T08:58:03;54.58;;;31.08;;
2099;SDS011;1055;48.854;9.302;2023-03-03T09:00:29;55.60;;;31.43;;
2099;SDS011;1055;48.854;9.302;2023-03-03T09:02:55;57.50;;;31.70;;
2099;SDS011;1055;48.854;9.302;2023-03-03T09:05:21;58.00;;;32.47;;
2099;SDS011;1055;48.854;9.302;2023-03-03T09:07:47;54.88;;;32.05;;
2099;SDS011;1055;48.854;9.302;2023-03-03T09:10:14;56.55;;;32.92;;
2099;SDS011;1055;48.854;9.302;2023-03-03T09:12:52;61.85;;;33.20;;
2099;SDS011;1055;48.854;9.302;2023-03-03T09:17:50;56.67;;;33.78;;
2099;SDS011;1055;48.854;9.302;2023-03-03T09:20:24;60.80;;;34.00;;
2099;SDS011;1055;48.854;9.302;2023-03-03T09:23:24;60.35;;;32.72;;
2099;SDS011;1055;48.854;9.302;2023-03-03T09:25:49;59.28;;;32.45;;
2099;SDS011;1055;48.854;9.302;2023-03-03T09:28:30;55.58;;;31.67;;
2099;SDS011;1055;48.854;9.302;2023-03-03T09:31:00;56.50;;;31.83;;
2099;SDS011;1055;48.854;9.302;2023-03-03T09:33:30;53.92;;;32.92;;
2099;SDS011;1055;48.854;9.302;2023-03-03T09:38:38;56.25;;;33.22;;
2099;SDS011;1055;48.854;9.302;2023-03-03T09:58:08;56.00;;;33.50;;
2099;SDS011;1055;48.854;9.302;2023-03-03T10:04:02;51.17;;;31.55;;
2099;SDS011;1055;48.854;9.302;2023-03-03T10:07:02;45.05;;;30.63;;
2099;SDS011;1055;48.854;9.302;2023-03-03T10:10:42;55.05;;;31.73;;
2099;SDS011;1055;48.854;9.302;2023-03-03T10:16:09;51.08;;;32.17;;
2099;SDS011;1055;48.854;9.302;2023-03-03T10:21:49;48.47;;;31.35;;
2099;SDS011;1055;48.854;9.302;2023-03-03T10:38:14;48.55;;;30.30;;
2099;SDS011;1055;48.854;9.302;2023-03-03T11:01:55;48.03;;;29.42;;
2099;SDS011;1055;48.854;9.302;2023-03-03T11:06:53;48.43;;;30.70;;
2099;SDS011;1055;48.854;9.302;2023-03-03T11:25:45;43.97;;;27.08;;
2099;SDS011;1055;48.854;9.302;2023-03-03T11:34:28;42.90;;;26.17;;
2099;SDS011;1055;48.854;9.302;2023-03-03T11:36:54;37.45;;;26.02;;
2099;SDS011;1055;48.854;9.302;2023-03-03T11:39:36;39.22;;;26.10;;
2099;SDS011;1055;48.854;9.302;2023-03-03T11:42:24;40.33;;;24.13;;
2099;SDS011;1055;48.854;9.302;2023-03-03T11:44:58;40.60;;;24.92;;
2099;SDS011;1055;48.854;9.302;2023-03-03T11:47:48;40.70;;;25.73;;
2099;SDS011;1055;48.854;9.302;2023-03-03T11:52:54;42.85;;;25.92;;
2099;SDS011;1055;48.854;9.302;2023-03-03T11:55:37;42.55;;;24.38;;
2099;SDS011;1055;48.854;9.302;2023-03-03T12:01:16;35.00;;;24.83;;
2099;SDS011;1055;48.854;9.302;2023-03-03T12:04:18;34.70;;;22.67;;
2099;SDS011;1055;48.854;9.302;2023-03-03T12:06:52;39.50;;;26.35;;
2099;SDS011;1055;48.854;9.302;2023-03-03T12:14:55;34.05;;;22.88;;
2099;SDS011;1055;48.854;9.302;2023-03-03T12:22:49;42.10;;;22.42;;
2099;SDS011;1055;48.854;9.302;2023-03-03T12:25:33;35.10;;;24.85;;
2099;SDS011;1055;48.854;9.302;2023-03-03T12:28:10;35.33;;;22.08;;
2099;SDS011;1055;48.854;9.302;2023-03-03T12:33:54;41.15;;;23.58;;
2099;SDS011;1055;48.854;9.302;2023-03-03T12:36:41;37.83;;;24.27;;
2099;SDS011;1055;48.854;9.302;2023-03-03T12:42:16;28.20;;;20.50;;
2099;SDS011;1055;48.854;9.302;2023-03-03T12:45:00;32.03;;;23.17;;
2099;SDS011;1055;48.854;9.302;2023-03-03T12:47:54;34.13;;;23.48;;
2099;SDS011;1055;48.854;9.302;2023-03-03T12:51:01;34.25;;;24.63;;
2099;SDS011;1055;48.854;9.302;2023-03-03T12:53:54;35.33;;;24.52;;
2099;SDS011;1055;48.854;9.302;2023-03-03T12:56:37;35.97;;;23.70;;
2099;SDS011;1055;48.854;9.302;2023-03-03T13:02:25;39.40;;;21.70;;
2099;SDS011;1055;48.854;9.302;2023-03-03T13:12:51;37.57;;;24.90;;
2099;SDS011;1055;48.854;9.302;2023-03-03T13:15:29;35.90;;;24.07;;
2099;SDS011;1055;48.854;9.302;2023-03-03T13:18:03;37.60;;;25.33;;
2099;SDS011;1055;48.854;9.302;2023-03-03T13:21:02;38.80;;;24.50;;
2099;SDS011;1055;48.854;9.302;2023-03-03T13:23:46;32.97;;;24.60;;
2099;SDS011;1055;48.854;9.302;2023-03-03T13:31:46;32.90;;;23.53;;
2099;SDS011;1055;48.854;9.302;2023-03-03T13:34:24;37.80;;;23.30;;
2099;SDS011;1055;48.854;9.302;2023-03-03T13:45:26;38.67;;;24.13;;
2099;SDS011;1055;48.854;9.302;2023-03-03T13:50:52;34.97;;;23.20;;
2099;SDS011;1055;48.854;9.302;2023-03-03T13:56:21;36.77;;;23.67;;
2099;SDS011;1055;48.854;9.302;2023-03-03T14:01:57;36.23;;;25.27;;
2099;SDS011;1055;48.854;9.302;2023-03-03T14:07:14;36.37;;;24.17;;
2099;SDS011;1055;48.854;9.302;2023-03-03T14:15:17;33.47;;;22.67;;
2099;SDS011;1055;48.854;9.302;2023-03-03T14:20:27;35.23;;;23.53;;
2099;SDS011;1055;48.854;9.302;2023-03-03T14:25:26;35.10;;;25.70;;
2099;SDS011;1055;48.854;9.302;2023-03-03T14:28:11;33.27;;;23.47;;
2099;SDS011;1055;48.854;9.302;2023-03-03T14:30:42;41.60;;;25.03;;
2099;SDS011;1055;48.854;9.302;2023-03-03T14:38:07;33.00;;;24.13;;
2099;SDS011;1055;48.854;9.302;2023-03-03T14:40:35;37.20;;;24.40;;
2099;SDS011;1055;48.854;9.302;2023-03-03T14:43:18;33.90;;;23.40;;
2099;SDS011;1055;48.854;9.302;2023-03-03T14:45:57;34.20;;;23.50;;
2099;SDS011;1055;48.854;9.302;2023-03-03T14:48:55;32.03;;;22.23;;
2099;SDS011;1055;48.854;9.302;2023-03-03T14:53:57;38.20;;;24.47;;
2099;SDS011;1055;48.854;9.302;2023-03-03T14:56:32;36.33;;;25.20;;
2099;SDS011;1055;48.854;9.302;2023-03-03T14:59:15;36.37;;;24.97;;
2099;SDS011;1055;48.854;9.302;2023-03-03T15:01:44;35.90;;;23.97;;
2099;SDS011;1055;48.854;9.302;2023-03-03T15:09:28;34.70;;;23.87;;
2099;SDS011;1055;48.854;9.302;2023-03-03T15:12:22;35.50;;;24.80;;
2099;SDS011;1055;48.854;9.302;2023-03-03T15:17:37;34.57;;;25.20;;
2099;SDS011;1055;48.854;9.302;2023-03-03T15:23:03;37.93;;;26.83;;
2099;SDS011;1055;48.854;9.302;2023-03-03T15:28:54;41.73;;;24.93;;
2099;SDS011;1055;48.854;9.302;2023-03-03T15:31:37;36.87;;;23.37;;
2099;SDS011;1055;48.854;9.302;2023-03-03T15:42:09;36.07;;;25.77;;
2099;SDS011;1055;48.854;9.302;2023-03-03T15:55:53;38.57;;;26.53;;
2099;SDS011;1055;48.854;9.302;2023-03-03T16:04:38;37.40;;;24.83;;
2099;SDS011;1055;48.854;9.302;2023-03-03T16:07:25;39.00;;;24.73;;
2099;SDS011;1055;48.854;9.302;2023-03-03T16:10:31;35.40;;;24.80;;
2099;SDS011;1055;48.854;9.302;2023-03-03T16:19:29;37.80;;;24.87;;
2099;SDS011;1055;48.854;9.302;2023-03-03T16:22:20;40.10;;;25.90;;
2099;SDS011;1055;48.854;9.302;2023-03-03T16:39:14;39.13;;;23.80;;
2099;SDS011;1055;48.854;9.302;2023-03-03T16:41:58;38.85;;;25.90;;
2099;SDS011;1055;48.854;9.302;2023-03-03T16:47:04;38.57;;;23.53;;
2099;SDS011;1055;48.854;9.302;2023-03-03T16:50:06;38.97;;;24.73;;
2099;SDS011;1055;48.854;9.302;2023-03-03T16:52:53;37.95;;;23.13;;
2099;SDS011;1055;48.854;9.302;2023-03-03T16:55:41;36.97;;;23.02;;
2099;SDS011;1055;48.854;9.302;2023-03-03T17:01:20;36.50;;;23.60;;
2099;SDS011;1055;48.854;9.302;2023-03-03T17:11:27;38.15;;;25.98;;
2099;SDS011;1055;48.854;9.302;2023-03-03T17:17:07;40.85;;;25.50;;
2099;SDS011;1055;48.854;9.302;2023-03-03T17:20:02;39.50;;;24.50;;
2099;SDS011;1055;48.854;9.302;2023-03-03T17:23:05;38.50;;;24.60;;
2099;SDS011;1055;48.854;9.302;2023-03-03T17:40:51;43.08;;;26.05;;
2099;SDS011;1055;48.854;9.302;2023-03-03T17:45:52;38.83;;;24.15;;
2099;SDS011;1055;48.854;9.302;2023-03-03T17:54:18;41.03;;;26.85;;
2099;SDS011;1055;48.854;9.302;2023-03-03T17:57:56;45.28;;;26.55;;
2099;SDS011;1055;48.854;9.302;2023-03-03T18:22:10;50.03;;;30.75;;
2099;SDS011;1055;48.854;9.302;2023-03-03T18:33:07;53.53;;;32.47;;
2099;SDS011;1055;48.854;9.302;2023-03-03T18:35:40;54.60;;;33.85;;
2099;SDS011;1055;48.854;9.302;2023-03-03T18:40:53;47.10;;;32.25;;
2099;SDS011;1055;48.854;9.302;2023-03-03T18:46:50;49.77;;;30.13;;
2099;SDS011;1055;48.854;9.302;2023-03-03T18:49:02;44.60;;;28.67;;
2099;SDS011;1055;48.854;9.302;2023-03-03T19:13:02;46.90;;;30.30;;
2099;SDS011;1055;48.854;9.302;2023-03-03T19:15:57;41.38;;;27.45;;
2099;SDS011;1055;48.854;9.302;2023-03-03T19:18:26;42.35;;;28.10;;
2099;SDS011;1055;48.854;9.302;2023-03-03T19:23:30;41.92;;;28.45;;
2099;SDS011;1055;48.854;9.302;2023-03-03T19:31:36;45.95;;;28.95;;
2099;SDS011;1055;48.854;9.302;2023-03-03T19:42:33;44.70;;;28.27;;
2099;SDS011;1055;48.854;9.302;2023-03-03T19:48:05;46.90;;;28.75;;
2099;SDS011;1055;48.854;9.302;2023-03-03T19:50:52;52.17;;;27.85;;
2099;SDS011;1055;48.854;9.302;2023-03-03T19:53:35;47.25;;;28.00;;
2099;SDS011;1055;48.854;9.302;2023-03-03T19:56:40;49.20;;;29.42;;
2099;SDS011;1055;48.854;9.302;2023-03-03T20:15:40;50.38;;;27.85;;
2099;SDS011;1055;48.854;9.302;2023-03-03T20:23:49;45.33;;;27.13;;
2099;SDS011;1055;48.854;9.302;2023-03-03T20:31:56;48.65;;;28.67;;
2099;SDS011;1055;48.854;9.302;2023-03-03T20:56:36;48.05;;;26.55;;
2099;SDS011;1055;48.854;9.302;2023-03-03T21:01:51;46.85;;;27.40;;
2099;SDS011;1055;48.854;9.302;2023-03-03T21:04:30;48.17;;;29.25;;
2099;SDS011;1055;48.854;9.302;2023-03-03T21:06:59;46.90;;;27.63;;
2099;SDS011;1055;48.854;9.302;2023-03-03T21:09:30;50.22;;;28.77;;
2099;SDS011;1055;48.854;9.302;2023-03-03T21:11:59;43.63;;;26.38;;
2099;SDS011;1055;48.854;9.302;2023-03-03T21:14:34;45.75;;;26.65;;
2099;SDS011;1055;48.854;9.302;2023-03-03T21:17:01;48.55;;;28.73;;
2099;SDS011;1055;48.854;9.302;2023-03-03T21:22:46;42.95;;;26.13;;
2099;SDS011;1055;48.854;9.302;2023-03-03T21:36:13;42.03;;;25.80;;
2099;SDS011;1055;48.854;9.302;2023-03-03T21:38:43;48.20;;;25.75;;
2099;SDS011;1055;48.854;9.302;2023-03-03T21:41:10;45.67;;;26.50;;
2099;SDS011;1055;48.854;9.302;2023-03-03T21:43:45;42.90;;;25.73;;
2099;SDS011;1055;48.854;9.302;2023-03-03T21:46:21;42.53;;;24.95;;
2099;SDS011;1055;48.854;9.302;2023-03-03T21:48:48;44.75;;;24.42;;
2099;SDS011;1055;48.854;9.302;2023-03-03T21:51:18;41.35;;;23.90;;
2099;SDS011;1055;48.854;9.302;2023-03-03T21:53:48;39.10;;;25.33;;
2099;SDS011;1055;48.854;9.302;2023-03-03T21:56:15;44.42;;;26.30;;
2099;SDS011;1055;48.854;9.302;2023-03-03T21:58:41;49.20;;;27.27;;
2099;SDS011;1055;48.854;9.302;2023-03-03T22:01:07;45.23;;;25.87;;
2099;SDS011;1055;48.854;9.302;2023-03-03T22:03:33;44.03;;;25.83;;
2099;SDS011;1055;48.854;9.302;2023-03-03T22:05:59;46.08;;;27.58;;
2099;SDS011;1055;48.854;9.302;2023-03-03T22:08:26;43.85;;;26.70;;
2099;SDS011;1055;48.854;9.302;2023-03-03T22:10:52;48.90;;;25.80;;
2099;SDS011;1055;48.854;9.302;2023-03-03T22:13:23;43.35;;;24.48;;
2099;SDS011;1055;48.854;9.302;2023-03-03T22:15:50;44.53;;;26.38;;
2099;SDS011;1055;48.854;9.302;2023-03-03T22:18:18;43.80;;;26.98;;
2099;SDS011;1055;48.854;9.302;2023-03-03T22:20:46;44.50;;;26.60;;
2099;SDS011;1055;48.854;9.302;2023-03-03T22:23:14;45.33;;;27.73;;
2099;SDS011;1055;48.854;9.302;2023-03-03T22:25:40;46.10;;;25.73;;
2099;SDS011;1055;48.854;9.302;2023-03-03T22:28:06;42.97;;;26.47;;
2099;SDS011;1055;48.854;9.302;2023-03-03T22:30:32;47.30;;;25.70;;
2099;SDS011;1055;48.854;9.302;2023-03-03T22:32:58;44.80;;;26.05;;
2099;SDS011;1055;48.854;9.302;2023-03-03T22:35:24;42.70;;;25.00;;
2099;SDS011;1055;48.854;9.302;2023-03-03T22:37:49;50.90;;;26.30;;
2099;SDS011;1055;48.854;9.302;2023-03-03T22:40:15;45.17;;;25.40;;
2099;SDS011;1055;48.854;9.302;2023-03-03T22:42:41;42.50;;;23.43;;